Time;durP1;ratioP1;P1;durP2;ratioP2;P2;SDS_P1;SDS_P2;PMS_P1;PMS_P2;Temp;Humidity;BMP_temperature;BMP_pressure;BME280_temperature;BME280_humidity;BME280_pressure;Samples;Min_cycle;Max_cycle;Signal;HPM_P1;HPM_P2
2022/09/21 00:00:25;;;;;;;14.10;8.23;;;;;;;6.72;100.00;100952.38;5066761;28;20033;-75
2022/09/21 00:02:54;;;;;;;9.40;6.80;;;;;;;6.61;100.00;100947.00;5017451;28;20036;-75
2022/09/21 00:05:19;;;;;;;9.32;6.45;;;;;;;6.66;100.00;100949.28;5033927;28;20021;-76
2022/09/21 00:07:45;;;;;;;9.85;7.32;;;;;;;6.63;100.00;100950.97;5034158;28;20389;-76
2022/09/21 00:10:10;;;;;;;12.05;7.45;;;;;;;6.58;100.00;100956.44;5067122;28;20120;-76
2022/09/21 00:12:37;;;;;;;11.55;7.38;;;;;;;6.62;100.00;100949.41;5017128;28;20022;-76
2022/09/21 00:15:08;;;;;;;11.77;7.60;;;;;;;6.64;100.00;100946.88;5033990;28;20028;-75
2022/09/21 00:17:34;;;;;;;10.82;7.10;;;;;;;6.63;100.00;100956.66;5033882;28;20400;-76
2022/09/21 00:20:04;;;;;;;14.38;7.97;;;;;;;6.58;100.00;100951.50;5033419;28;20050;-75
2022/09/21 00:22:29;;;;;;;11.15;8.00;;;;;;;6.52;100.00;100949.69;5033845;28;20183;-75
2022/09/21 00:24:55;;;;;;;12.85;7.95;;;;;;;6.57;100.00;100954.81;5016689;28;20132;-75
2022/09/21 00:27:21;;;;;;;15.10;7.93;;;;;;;6.49;100.00;100953.41;5066852;28;20030;-75
2022/09/21 00:29:47;;;;;;;10.30;7.60;;;;;;;6.49;100.00;100954.22;5066946;28;20025;-75
2022/09/21 00:32:14;;;;;;;12.57;7.55;;;;;;;6.45;100.00;100953.53;5033476;28;20023;-74
2022/09/21 00:34:40;;;;;;;12.30;7.45;;;;;;;6.47;100.00;100961.59;5017372;28;20025;-75
2022/09/21 00:37:08;;;;;;;10.48;7.50;;;;;;;6.48;100.00;100960.38;5050032;28;20044;-76
2022/09/21 00:39:33;;;;;;;13.20;7.45;;;;;;;6.50;100.00;100960.69;5033640;28;20474;-74
2022/09/21 00:41:58;;;;;;;13.23;7.75;;;;;;;6.52;100.00;100963.91;5033303;28;20028;-73
2022/09/21 00:44:29;;;;;;;15.80;7.90;;;;;;;6.45;100.00;100964.09;5033541;28;20029;-74
2022/09/21 00:46:56;;;;;;;13.20;7.57;;;;;;;6.42;100.00;100967.81;5033395;28;20021;-74
2022/09/21 00:49:22;;;;;;;12.73;7.20;;;;;;;6.46;100.00;100955.13;5066618;28;20493;-74
2022/09/21 00:51:48;;;;;;;9.80;6.88;;;;;;;6.52;100.00;100958.22;5049775;28;20018;-74
2022/09/21 00:54:19;;;;;;;19.13;7.38;;;;;;;6.47;100.00;100956.72;5049831;28;20493;-74
2022/09/21 00:56:45;;;;;;;15.75;6.78;;;;;;;6.49;100.00;100967.63;5034477;28;20108;-74
2022/09/21 00:59:12;;;;;;;11.48;6.25;;;;;;;6.46;100.00;100965.69;5033275;28;20117;-74
2022/09/21 01:01:37;;;;;;;10.52;6.28;;;;;;;6.41;100.00;100967.03;5016405;28;20075;-74
2022/09/21 01:04:05;;;;;;;9.38;5.95;;;;;;;6.42;100.00;100977.16;5033075;28;20021;-75
2022/09/21 01:06:31;;;;;;;10.98;6.82;;;;;;;6.41;100.00;100972.69;5032982;28;20075;-75
2022/09/21 01:08:58;;;;;;;9.90;6.60;;;;;;;6.40;100.00;100979.63;5033094;28;20026;-74
2022/09/21 01:11:58;;;;;;;10.73;6.10;;;;;;;6.40;100.00;100979.63;5016588;28;20377;-74
2022/09/21 01:14:29;;;;;;;7.30;5.20;;;;;;;6.43;100.00;100978.75;5022168;28;20048;-75
2022/09/21 01:17:12;;;;;;;9.25;5.68;;;;;;;6.43;100.00;100977.94;5033875;28;20402;-74
2022/09/21 01:20:05;;;;;;;11.57;5.45;;;;;;;6.42;100.00;100973.50;5030334;28;20136;-75
2022/09/21 01:22:42;;;;;;;12.95;5.65;;;;;;;6.36;100.00;100972.44;5030372;28;20021;-74
2022/09/21 01:25:22;;;;;;;9.48;5.75;;;;;;;6.43;100.00;100975.91;5030522;28;20029;-75
2022/09/21 01:27:58;;;;;;;8.27;5.95;;;;;;;6.34;100.00;100981.41;5030551;28;20482;-75
2022/09/21 01:30:24;;;;;;;9.55;5.80;;;;;;;6.31;100.00;100973.78;5030449;28;20022;-75
2022/09/21 01:33:03;;;;;;;9.07;5.30;;;;;;;6.38;100.00;100982.13;5013819;28;20023;-75
2022/09/21 01:35:33;;;;;;;9.73;5.70;;;;;;;6.38;100.00;100979.28;5030221;28;20475;-74
2022/09/21 01:38:03;;;;;;;6.85;5.53;;;;;;;6.31;100.00;100988.00;5030402;28;20637;-74
2022/09/21 01:40:41;;;;;;;8.32;5.47;;;;;;;6.19;100.00;100983.81;5046906;28;20029;-75
2022/09/21 01:43:09;;;;;;;11.65;5.25;;;;;;;6.30;100.00;100992.06;5030361;28;20100;-76
2022/09/21 01:45:39;;;;;;;9.10;5.85;;;;;;;6.34;100.00;100987.09;5063836;28;20451;-75
2022/09/21 01:48:05;;;;;;;8.57;5.03;;;;;;;6.33;100.00;100985.50;5063449;28;20100;-74
2022/09/21 01:50:35;;;;;;;10.23;5.75;;;;;;;6.30;100.00;100986.38;5030553;28;20018;-75
2022/09/21 01:53:01;;;;;;;8.40;5.38;;;;;;;6.31;100.00;100990.03;5032030;28;20017;-74
2022/09/21 01:55:41;;;;;;;7.43;4.80;;;;;;;6.30;100.00;100994.91;5033665;28;20056;-74
2022/09/21 01:58:16;;;;;;;6.38;4.70;;;;;;;6.29;100.00;100992.50;5032634;28;20528;-74
2022/09/21 02:00:45;;;;;;;9.18;4.90;;;;;;;6.27;100.00;100995.78;5033682;28;20025;-75
2022/09/21 02:03:19;;;;;;;7.18;4.53;;;;;;;6.25;100.00;100992.56;5032459;28;20029;-74
2022/09/21 02:05:45;;;;;;;7.90;5.15;;;;;;;6.25;100.00;100996.22;5033528;28;20021;-74
2022/09/21 02:08:11;;;;;;;7.07;4.40;;;;;;;6.24;100.00;101000.28;5015596;28;20481;-74
2022/09/21 02:10:45;;;;;;;8.85;5.38;;;;;;;6.24;100.00;100996.66;5032123;28;20017;-75
2022/09/21 02:13:13;;;;;;;8.98;4.70;;;;;;;6.20;100.00;101007.31;5048954;28;20049;-74
2022/09/21 02:16:11;;;;;;;8.95;5.30;;;;;;;6.17;100.00;100997.66;5032309;28;20386;-74
2022/09/21 02:19:10;;;;;;;11.90;5.95;;;;;;;6.17;100.00;101006.16;5031990;28;20025;-74
2022/09/21 02:21:56;;;;;;;9.13;5.13;;;;;;;6.21;100.00;101001.19;5031862;28;20041;-74
2022/09/21 02:24:32;;;;;;;9.18;5.53;;;;;;;6.18;100.00;101004.13;5032247;28;20025;-74
2022/09/21 02:27:22;;;;;;;11.68;5.20;;;;;;;6.17;100.00;101009.00;5033159;28;20025;-74
2022/09/21 02:30:20;;;;;;;7.32;5.05;;;;;;;6.09;100.00;101006.81;5033637;28;20103;-74
2022/09/21 02:32:51;;;;;;;9.02;5.55;;;;;;;6.13;100.00;101010.34;5026727;28;20045;-74
2022/09/21 02:35:35;;;;;;;11.85;5.40;;;;;;;6.13;100.00;101011.13;5031830;28;20029;-75
2022/09/21 02:38:25;;;;;;;9.80;5.20;;;;;;;6.08;100.00;101003.16;5033339;28;20029;-74
2022/09/21 02:41:02;;;;;;;10.00;5.60;;;;;;;6.14;100.00;101015.56;5031845;28;20056;-74
2022/09/21 02:43:36;;;;;;;7.35;5.25;;;;;;;6.13;100.00;101004.66;5031976;28;20386;-74
2022/09/21 02:46:05;;;;;;;10.30;6.28;;;;;;;6.16;100.00;101017.94;5032194;28;20489;-74
2022/09/21 02:48:37;;;;;;;12.15;5.20;;;;;;;6.17;100.00;101017.50;5068803;28;20047;-74
2022/09/21 02:51:07;;;;;;;15.48;5.65;;;;;;;6.15;100.00;101020.00;5069031;28;20029;-74
2022/09/21 02:53:35;;;;;;;7.18;5.07;;;;;;;6.15;100.00;101014.31;5052277;28;20025;-74
2022/09/21 02:56:03;;;;;;;8.40;5.50;;;;;;;6.10;100.00;101022.56;5019091;28;20025;-75
2022/09/21 02:58:30;;;;;;;17.67;8.10;;;;;;;6.13;100.00;101024.53;5019066;28;20390;-75
2022/09/21 03:00:58;;;;;;;10.95;5.40;;;;;;;6.20;100.00;101030.00;5052006;28;20044;-74
2022/09/21 03:03:23;;;;;;;9.75;6.38;;;;;;;6.24;100.00;101033.53;5018916;28;20021;-74
2022/09/21 03:05:51;;;;;;;9.63;5.28;;;;;;;6.38;100.00;101035.25;5035389;28;20474;-74
2022/09/21 03:08:17;;;;;;;10.95;6.85;;;;;;;6.49;100.00;101030.88;5068568;28;20029;-74
2022/09/21 03:10:43;;;;;;;7.60;6.10;;;;;;;6.52;100.00;101049.06;5035046;28;20377;-74
2022/09/21 03:13:09;;;;;;;9.38;5.93;;;;;;;6.55;100.00;101040.44;5035443;28;20033;-74
2022/09/21 03:15:36;;;;;;;8.73;5.55;;;;;;;6.69;100.00;101044.94;5051698;28;20032;-74
2022/09/21 03:18:03;;;;;;;10.27;6.25;;;;;;;6.74;100.00;101040.75;5051702;28;20049;-74
2022/09/21 03:20:31;;;;;;;8.15;5.40;;;;;;;6.85;100.00;101039.19;5034660;28;20128;-74
2022/09/21 03:22:56;;;;;;;11.55;6.53;;;;;;;6.89;100.00;101042.72;5034957;28;20025;-74
2022/09/21 03:25:22;;;;;;;9.70;6.10;;;;;;;6.87;100.00;101039.56;5034854;28;20561;-74
2022/09/21 03:27:47;;;;;;;13.60;7.10;;;;;;;6.89;100.00;101045.56;5051526;28;20024;-74
2022/09/21 03:30:13;;;;;;;11.40;6.78;;;;;;;7.01;100.00;101052.56;5034990;28;20386;-74
2022/09/21 03:32:38;;;;;;;12.73;6.75;;;;;;;6.97;100.00;101044.16;5034802;28;20014;-74
2022/09/21 03:35:04;;;;;;;13.10;6.93;;;;;;;7.04;100.00;101046.75;5034673;28;20382;-74
2022/09/21 03:37:29;;;;;;;12.52;6.55;;;;;;;7.05;100.00;101048.34;5036011;28;20424;-74
2022/09/21 03:39:55;;;;;;;11.15;6.53;;;;;;;7.19;100.00;101034.97;5034594;28;20125;-74
2022/09/21 03:42:20;;;;;;;10.73;7.07;;;;;;;7.18;100.00;101048.38;5017950;28;20032;-74
2022/09/21 03:44:46;;;;;;;9.70;6.57;;;;;;;7.23;100.00;101047.81;5034510;28;20531;-74
2022/09/21 03:47:11;;;;;;;10.30;6.38;;;;;;;7.24;100.00;101045.78;5035907;28;20048;-74
2022/09/21 03:49:37;;;;;;;11.70;6.45;;;;;;;7.25;100.00;101053.06;5035748;28;20029;-74
2022/09/21 03:52:03;;;;;;;13.63;7.72;;;;;;;7.28;100.00;101055.00;5034367;28;20327;-74
2022/09/21 03:54:28;;;;;;;11.30;6.93;;;;;;;7.29;100.00;101057.38;5051305;28;20076;-75
2022/09/21 03:56:54;;;;;;;14.23;6.28;;;;;;;7.32;100.00;101059.34;5034670;28;20049;-74
2022/09/21 03:59:19;;;;;;;15.00;6.88;;;;;;;7.30;100.00;101067.53;5033565;28;20096;-74
2022/09/21 04:01:45;;;;;;;9.88;6.53;;;;;;;7.33;100.00;101065.81;5067665;28;20175;-74
2022/09/21 04:04:10;;;;;;;10.43;6.60;;;;;;;7.31;100.00;101066.28;5034138;28;20112;-75
2022/09/21 04:06:35;;;;;;;14.70;7.47;;;;;;;7.24;100.00;101072.16;5035322;28;20037;-74
2022/09/21 04:09:02;;;;;;;12.80;7.28;;;;;;;7.30;100.00;101069.56;5034001;28;20033;-74
2022/09/21 04:11:28;;;;;;;14.25;7.95;;;;;;;7.26;100.00;101069.69;5067283;28;20017;-74
2022/09/21 04:13:55;;;;;;;13.68;7.28;;;;;;;7.34;100.00;101073.88;5067391;28;20049;-74
2022/09/21 04:16:24;;;;;;;12.85;7.22;;;;;;;7.37;100.00;101075.81;5067200;28;20034;-74
2022/09/21 04:18:50;;;;;;;11.43;7.32;;;;;;;7.38;100.00;101077.41;5034262;28;20529;-73
2022/09/21 04:21:16;;;;;;;14.13;7.93;;;;;;;7.37;100.00;101075.81;5050140;28;20132;-74
2022/09/21 04:23:42;;;;;;;15.85;8.18;;;;;;;7.35;100.00;101077.53;5033693;28;20116;-74
2022/09/21 04:26:24;;;;;;;14.02;7.80;;;;;;;7.33;100.00;101080.03;5034064;28;20104;-74
2022/09/21 04:28:50;;;;;;;14.07;8.25;;;;;;;7.32;100.00;101075.59;5066887;28;20025;-74
2022/09/21 04:31:16;;;;;;;13.35;8.50;;;;;;;7.35;100.00;101081.19;5033407;28;20063;-74
2022/09/21 04:33:41;;;;;;;12.32;8.15;;;;;;;7.47;100.00;101083.22;5050099;28;20060;-73
2022/09/21 04:36:07;;;;;;;13.32;7.57;;;;;;;7.52;100.00;101094.03;5066574;28;20478;-73
2022/09/21 04:38:32;;;;;;;15.55;8.52;;;;;;;7.42;100.00;101075.25;5033100;28;20064;-74
2022/09/21 04:40:58;;;;;;;13.65;8.90;;;;;;;7.34;100.00;101079.56;5034894;28;20025;-74
2022/09/21 04:43:24;;;;;;;11.00;7.60;;;;;;;7.47;100.00;101083.22;5033443;28;20423;-74
2022/09/21 04:45:50;;;;;;;12.48;7.30;;;;;;;7.56;100.00;101079.75;5033083;28;20033;-73
2022/09/21 04:48:17;;;;;;;12.80;9.02;;;;;;;7.66;100.00;101077.81;5032552;28;20516;-77
2022/09/21 04:50:50;;;;;;;15.50;8.68;;;;;;;7.59;100.00;101086.56;5034362;28;20467;-76
2022/09/21 04:53:17;;;;;;;15.10;8.98;;;;;;;7.69;100.00;101096.81;5033248;28;20036;-76
2022/09/21 04:55:45;;;;;;;13.75;8.18;;;;;;;7.66;100.00;101089.19;5033235;28;20496;-76
2022/09/21 04:58:12;;;;;;;17.98;9.15;;;;;;;7.64;100.00;101088.84;5033104;28;20033;-75
2022/09/21 05:00:40;;;;;;;17.58;8.82;;;;;;;7.69;100.00;101080.53;5032971;28;20025;-76
2022/09/21 05:03:05;;;;;;;12.65;8.18;;;;;;;7.70;100.00;101098.41;5032685;28;20034;-75
2022/09/21 05:05:32;;;;;;;13.65;8.63;;;;;;;7.75;100.00;101092.16;5034249;28;20032;-77
2022/09/21 05:07:57;;;;;;;12.80;8.90;;;;;;;7.71;100.00;101100.00;5016490;28;20536;-77
2022/09/21 05:10:24;;;;;;;14.25;8.30;;;;;;;7.77;100.00;101101.81;5016460;28;20029;-77
2022/09/21 05:12:51;;;;;;;18.75;9.18;;;;;;;7.73;100.00;101098.28;5033040;28;20032;-75
2022/09/21 05:15:18;;;;;;;14.20;8.07;;;;;;;7.61;100.00;101107.63;5034018;28;20032;-75
2022/09/21 05:17:43;;;;;;;11.98;9.02;;;;;;;7.69;100.00;101111.81;5032788;28;20033;-76
2022/09/21 05:20:10;;;;;;;15.27;8.13;;;;;;;7.75;100.00;101110.03;5048031;28;20107;-76
2022/09/21 05:22:36;;;;;;;15.10;7.95;;;;;;;7.86;100.00;101121.06;5032578;28;20037;-75
2022/09/21 05:25:03;;;;;;;14.00;7.28;;;;;;;7.87;100.00;101123.44;5034497;28;20037;-77
2022/09/21 05:27:28;;;;;;;13.35;8.43;;;;;;;7.83;100.00;101127.66;5032165;28;20458;-75
2022/09/21 05:29:56;;;;;;;12.70;8.20;;;;;;;8.00;100.00;101134.84;5031362;28;20045;-74
2022/09/21 05:32:59;;;;;;;12.27;8.15;;;;;;;8.12;100.00;101125.50;5033907;28;20406;-75
2022/09/21 05:35:39;;;;;;;14.65;8.38;;;;;;;8.13;100.00;101123.44;5066116;28;20091;-75
2022/09/21 05:38:16;;;;;;;15.35;7.10;;;;;;;8.26;100.00;101133.59;5033731;28;20029;-75
2022/09/21 05:40:51;;;;;;;10.70;7.13;;;;;;;8.26;100.00;101136.44;5065799;28;20030;-74
2022/09/21 05:43:17;;;;;;;12.75;7.55;;;;;;;8.34;100.00;101137.03;5048792;28;20040;-75
2022/09/21 05:45:56;;;;;;;13.32;6.90;;;;;;;8.23;100.00;101143.06;5065647;28;20558;-75
2022/09/21 05:48:36;;;;;;;14.63;6.93;;;;;;;8.12;100.00;101131.19;5032493;28;20036;-75
2022/09/21 05:51:38;;;;;;;9.88;6.53;;;;;;;8.02;100.00;101132.31;5032325;28;20079;-74
2022/09/21 05:54:14;;;;;;;11.85;6.85;;;;;;;8.04;100.00;101138.38;5015526;28;20041;-74
2022/09/21 05:57:21;;;;;;;8.95;6.45;;;;;;;8.07;100.00;101139.50;5032431;28;20084;-74
2022/09/21 06:00:21;;;;;;;15.15;7.93;;;;;;;8.20;100.00;101149.69;5032075;28;20128;-76
2022/09/21 06:03:13;;;;;;;12.73;7.05;;;;;;;8.24;100.00;101149.56;5048617;28;20486;-76
2022/09/21 06:05:40;;;;;;;13.20;7.93;;;;;;;8.28;100.00;101153.88;5032227;28;20033;-76
2022/09/21 06:08:06;;;;;;;13.48;8.10;;;;;;;8.38;100.00;101143.41;5049656;28;20441;-75
2022/09/21 06:10:34;;;;;;;14.15;8.15;;;;;;;8.50;100.00;101148.28;5065934;28;20032;-75
2022/09/21 06:13:01;;;;;;;14.77;7.97;;;;;;;8.62;100.00;101158.06;5033291;28;20100;-76
2022/09/21 06:15:27;;;;;;;14.70;8.40;;;;;;;8.67;100.00;101152.56;5065568;28;20103;-76
2022/09/21 06:17:53;;;;;;;11.27;8.25;;;;;;;8.65;100.00;101155.09;5032089;28;20049;-75
2022/09/21 06:20:20;;;;;;;16.98;7.82;;;;;;;8.65;100.00;101145.75;5032004;28;20128;-76
2022/09/21 06:22:46;;;;;;;14.60;8.63;;;;;;;8.70;100.00;101159.44;5035794;28;20046;-74
2022/09/21 06:25:13;;;;;;;17.00;8.73;;;;;;;8.71;100.00;101152.44;5037347;28;20029;-75
2022/09/21 06:27:39;;;;;;;13.07;8.52;;;;;;;8.68;100.00;101156.22;5036990;28;20037;-74
2022/09/21 06:30:07;;;;;;;13.60;7.45;;;;;;;8.69;100.00;101150.06;5068932;28;20048;-75
2022/09/21 06:32:33;;;;;;;14.32;7.85;;;;;;;8.81;100.00;101151.28;5036964;28;20056;-75
2022/09/21 06:34:59;;;;;;;15.52;9.15;;;;;;;8.88;100.00;101159.59;5035627;28;20382;-75
2022/09/21 06:37:25;;;;;;;19.70;8.05;;;;;;;9.05;100.00;101160.25;5035578;28;20458;-74
2022/09/21 06:39:51;;;;;;;16.50;8.43;;;;;;;9.15;100.00;101159.84;5035784;28;20033;-74
2022/09/21 06:42:17;;;;;;;17.83;8.35;;;;;;;9.01;100.00;101160.34;5036517;28;20462;-75
2022/09/21 06:44:43;;;;;;;19.45;8.63;;;;;;;9.18;100.00;101173.19;5035456;28;20064;-74
2022/09/21 06:47:08;;;;;;;12.18;8.32;;;;;;;9.07;100.00;101171.97;5037087;28;20029;-76
2022/09/21 06:49:36;;;;;;;20.27;8.23;;;;;;;8.98;100.00;101164.13;5035408;28;20116;-75
2022/09/21 06:52:03;;;;;;;15.80;8.05;;;;;;;8.73;100.00;101173.53;5035382;28;20025;-75
2022/09/21 06:54:30;;;;;;;13.55;8.05;;;;;;;8.81;100.00;101171.22;5035634;28;20029;-75
2022/09/21 06:56:57;;;;;;;12.48;7.40;;;;;;;8.66;100.00;101170.13;5035487;28;20083;-75
2022/09/21 06:59:24;;;;;;;12.45;7.95;;;;;;;8.53;100.00;101163.66;5036704;28;20486;-75
2022/09/21 07:01:57;;;;;;;15.82;7.72;;;;;;;8.54;100.00;101168.91;5036341;28;20477;-75
2022/09/21 07:04:23;;;;;;;16.70;9.18;;;;;;;8.57;100.00;101176.53;5068285;28;20037;-76
2022/09/21 07:06:50;;;;;;;12.85;8.45;;;;;;;8.63;100.00;101171.84;5035238;28;20438;-75
2022/09/21 07:09:15;;;;;;;14.10;8.07;;;;;;;8.73;100.00;101164.19;5017377;28;20056;-75
2022/09/21 07:11:41;;;;;;;15.85;8.48;;;;;;;8.62;100.00;101170.25;5035827;28;20435;-75
2022/09/21 07:14:07;;;;;;;11.10;7.45;;;;;;;8.72;100.00;101176.84;5035000;28;20108;-75
2022/09/21 07:16:34;;;;;;;12.57;8.38;;;;;;;8.90;100.00;101174.19;5034934;28;20033;-77
2022/09/21 07:19:00;;;;;;;9.82;7.10;;;;;;;8.91;100.00;101178.63;5035880;28;20083;-77
2022/09/21 07:21:25;;;;;;;11.02;7.40;;;;;;;9.53;100.00;101176.78;5017874;28;20128;-77
2022/09/21 07:23:52;;;;;;;11.60;7.68;;;;;;;10.50;100.00;101175.44;5036162;28;20030;-78
2022/09/21 07:26:17;;;;;;;10.82;7.05;;;;;;;11.62;100.00;101188.13;5034839;28;20130;-76
2022/09/21 07:28:43;;;;;;;9.30;6.90;;;;;;;12.59;100.00;101191.69;5034768;28;20494;-76
2022/09/21 07:31:14;;;;;;;9.60;6.57;;;;;;;12.55;100.00;101201.75;5035593;28;20536;-77
2022/09/21 07:33:40;;;;;;;13.30;6.43;;;;;;;12.22;100.00;101207.41;5034560;28;20036;-77
2022/09/21 07:36:09;;;;;;;11.07;6.88;;;;;;;11.99;100.00;101216.72;5036281;28;20029;-76
2022/09/21 07:38:40;;;;;;;10.27;6.78;;;;;;;11.72;100.00;101208.94;5018346;28;20029;-78
2022/09/21 07:41:14;;;;;;;15.18;8.88;;;;;;;11.66;100.00;101208.81;5035463;28;20026;-75
2022/09/21 07:43:41;;;;;;;12.48;6.75;;;;;;;11.59;100.00;101212.00;5034209;28;20052;-77
2022/09/21 07:46:07;;;;;;;10.00;7.55;;;;;;;11.32;100.00;101212.00;5034417;28;20029;-76
2022/09/21 07:48:34;;;;;;;12.40;8.05;;;;;;;11.36;100.00;101213.44;5035486;28;20478;-76
2022/09/21 07:51:04;;;;;;;12.20;7.47;;;;;;;11.56;100.00;101218.69;5035263;28;20119;-76
2022/09/21 07:53:36;;;;;;;12.60;7.90;;;;;;;11.86;100.00;101221.84;5034201;28;20022;-76
2022/09/21 07:56:07;;;;;;;9.65;6.75;;;;;;;13.07;100.00;101226.97;5033934;28;20021;-75
2022/09/21 08:01:18;;;;;;;9.32;6.53;;;;;;;14.31;100.00;101225.25;5034488;28;20110;-76
2022/09/21 08:03:43;;;;;;;9.68;6.63;;;;;;;14.61;100.00;101214.53;5017517;28;20475;-75
2022/09/21 08:06:09;;;;;;;10.93;6.97;;;;;;;14.41;100.00;101218.91;5034057;28;20498;-75
2022/09/21 08:08:35;;;;;;;12.20;7.25;;;;;;;13.99;100.00;101230.69;5016931;28;20068;-75
2022/09/21 08:11:07;;;;;;;10.07;6.13;;;;;;;13.40;100.00;101232.63;5034209;28;20025;-76
2022/09/21 08:13:33;;;;;;;9.90;7.53;;;;;;;13.06;100.00;101233.19;5033737;28;20056;-75
2022/09/21 08:15:59;;;;;;;9.10;7.32;;;;;;;13.07;100.00;101223.28;5035765;28;20060;-75
2022/09/21 08:18:26;;;;;;;8.98;6.55;;;;;;;13.18;100.00;101226.41;5033751;28;20083;-75
2022/09/21 08:20:56;;;;;;;12.27;6.80;;;;;;;13.03;100.00;101226.34;5033154;28;20049;-76
2022/09/21 08:23:22;;;;;;;11.18;6.50;;;;;;;13.14;100.00;101231.53;5033633;28;20064;-76
2022/09/21 08:25:47;;;;;;;12.82;6.88;;;;;;;13.31;100.00;101235.56;5033446;28;20048;-76
2022/09/21 08:28:13;;;;;;;10.35;6.80;;;;;;;13.42;100.00;101238.69;5017063;28;20143;-77
2022/09/21 08:30:39;;;;;;;8.68;6.78;;;;;;;13.50;100.00;101241.94;5016842;28;20032;-76
2022/09/21 08:33:05;;;;;;;9.43;6.53;;;;;;;13.48;100.00;101250.28;5016727;28;20112;-75
2022/09/21 08:35:31;;;;;;;9.23;6.93;;;;;;;12.63;100.00;101240.25;5016821;28;20485;-76
2022/09/21 08:37:58;;;;;;;11.02;6.22;;;;;;;12.71;100.00;101238.63;5016601;28;20040;-75
2022/09/21 08:40:24;;;;;;;11.48;6.85;;;;;;;12.65;100.00;101235.63;5033324;28;20029;-76
2022/09/21 08:42:49;;;;;;;12.15;6.45;;;;;;;12.90;100.00;101228.63;5033300;28;20021;-75
2022/09/21 08:45:17;;;;;;;14.07;6.53;;;;;;;13.08;100.00;101236.38;5032749;28;20478;-77
2022/09/21 08:47:48;;;;;;;10.27;7.43;;;;;;;13.07;100.00;101247.03;5016493;28;20025;-75
2022/09/21 08:50:32;;;;;;;12.48;7.65;;;;;;;12.96;100.00;101237.38;5033178;28;20103;-77
2022/09/21 08:53:05;;;;;;;10.32;6.28;;;;;;;13.21;100.00;101248.38;5034297;28;20083;-76
2022/09/21 08:55:31;;;;;;;8.32;6.45;;;;;;;13.51;100.00;101241.50;5034255;28;20074;-76
2022/09/21 08:57:58;;;;;;;9.55;6.82;;;;;;;13.66;100.00;101235.78;5033029;28;20389;-76
2022/09/21 09:00:23;;;;;;;12.60;6.93;;;;;;;13.68;100.00;101238.97;5034256;28;20025;-76
2022/09/21 09:02:56;;;;;;;11.57;6.78;;;;;;;13.54;100.00;101234.75;5015876;28;20049;-76
2022/09/21 09:05:40;;;;;;;9.73;6.53;;;;;;;13.66;100.00;101246.47;5032802;28;20025;-77
2022/09/21 09:08:39;;;;;;;14.50;6.40;;;;;;;13.67;100.00;101245.22;5032616;28;20029;-76
2022/09/21 09:11:23;;;;;;;7.95;6.50;;;;;;;13.76;100.00;101243.03;5032687;28;20032;-78
2022/09/21 09:14:02;;;;;;;10.82;6.60;;;;;;;13.89;100.00;101237.00;5000372;28;20037;-78
2022/09/21 09:16:52;;;;;;;10.40;6.15;;;;;;;13.79;100.00;101233.44;5034322;28;20032;-77
2022/09/21 09:19:33;;;;;;;7.05;5.28;;;;;;;13.99;100.00;101242.19;5025120;28;20371;-77
2022/09/21 09:22:01;;;;;;;6.32;5.05;;;;;;;14.09;100.00;101237.13;5032438;28;20148;-78
2022/09/21 09:24:32;;;;;;;6.72;5.15;;;;;;;14.34;100.00;101239.41;5016580;28;20053;-78
2022/09/21 09:27:02;;;;;;;9.23;6.25;;;;;;;14.59;100.00;101235.16;5033783;28;20037;-76
2022/09/21 09:29:33;;;;;;;7.35;5.07;;;;;;;14.46;100.00;101234.66;5033422;28;20462;-76
2022/09/21 09:32:00;;;;;;;5.30;4.10;;;;;;;14.55;100.00;101236.63;5032109;28;20049;-75
2022/09/21 09:34:34;;;;;;;6.72;4.32;;;;;;;14.91;100.00;101232.50;4999539;28;20099;-75
2022/09/21 09:37:16;;;;;;;10.02;4.80;;;;;;;14.86;100.00;101228.25;5015819;28;20040;-77
2022/09/21 09:39:50;;;;;;;7.25;4.65;;;;;;;15.15;100.00;101233.91;5033870;28;20171;-77
2022/09/21 09:42:42;;;;;;;5.78;4.57;;;;;;;15.57;100.00;101227.63;5031457;28;20029;-76
2022/09/21 09:45:30;;;;;;;4.65;4.18;;;;;;;15.75;100.00;101231.56;5031464;28;20466;-77
2022/09/21 09:48:09;;;;;;;6.10;4.00;;;;;;;16.19;100.00;101231.22;5031104;28;20386;-78
2022/09/21 09:50:37;;;;;;;5.28;4.07;;;;;;;16.72;100.00;101224.88;5031226;28;20079;-76
2022/09/21 09:53:10;;;;;;;6.82;3.83;;;;;;;16.86;100.00;101227.59;5029945;28;20112;-77
2022/09/21 09:55:39;;;;;;;8.25;3.75;;;;;;;16.92;100.00;101233.41;5030119;28;20025;-76
2022/09/21 09:58:11;;;;;;;5.97;3.88;;;;;;;17.12;100.00;101227.50;5029456;28;20025;-77
2022/09/21 10:00:38;;;;;;;4.07;3.63;;;;;;;17.31;100.00;101219.19;5013788;28;20064;-77
2022/09/21 10:03:15;;;;;;;3.80;2.90;;;;;;;17.38;100.00;101222.41;5031820;28;20484;-78
2022/09/21 10:05:41;;;;;;;3.75;2.83;;;;;;;17.74;100.00;101217.81;5031874;28;20029;-77
2022/09/21 10:08:25;;;;;;;5.30;2.92;;;;;;;17.81;100.00;101226.00;5032170;28;20490;-77
2022/09/21 10:10:50;;;;;;;10.25;2.90;;;;;;;17.51;99.41;101212.47;5031868;28;20179;-78
2022/09/21 10:13:18;;;;;;;6.25;2.90;;;;;;;17.19;97.34;101217.56;5033171;28;20110;-77
2022/09/21 10:15:49;;;;;;;6.63;2.63;;;;;;;16.88;100.00;101219.22;5032821;28;20034;-76
2022/09/21 10:18:22;;;;;;;4.55;2.17;;;;;;;16.90;100.00;101222.38;5031558;28;20021;-76
2022/09/21 10:20:56;;;;;;;4.13;2.70;;;;;;;16.72;100.00;101219.09;5032886;28;20085;-76
2022/09/21 10:23:22;;;;;;;4.50;2.83;;;;;;;16.58;100.00;101220.06;5015678;28;20030;-76
2022/09/21 10:26:07;;;;;;;5.95;2.90;;;;;;;16.68;100.00;101222.25;5015115;28;20025;-76
2022/09/21 10:28:33;;;;;;;5.57;2.90;;;;;;;16.82;100.00;101220.50;5031703;28;20026;-77
2022/09/21 10:31:17;;;;;;;5.03;2.80;;;;;;;16.75;100.00;101221.75;5031734;28;20152;-79
2022/09/21 10:34:05;;;;;;;2.90;2.30;;;;;;;16.29;100.00;101206.69;5031601;28;20036;-77
2022/09/21 10:36:36;;;;;;;8.50;2.90;;;;;;;16.87;100.00;101206.09;5014913;28;20025;-77
2022/09/21 10:39:26;;;;;;;5.45;2.90;;;;;;;17.50;100.00;101205.91;5032790;28;20029;-77
2022/09/21 10:42:13;;;;;;;2.20;1.92;;;;;;;17.72;98.81;101208.09;5031243;28;20032;-76
2022/09/21 10:44:42;;;;;;;3.05;2.33;;;;;;;17.97;97.60;101200.53;5032395;28;20071;-76
2022/09/21 10:47:18;;;;;;;6.05;2.58;;;;;;;18.01;93.80;101201.06;5031453;28;20029;-76
2022/09/21 10:49:49;;;;;;;8.52;2.80;;;;;;;18.06;94.26;101201.06;5031382;28;20033;-76
2022/09/21 10:52:14;;;;;;;3.10;2.00;;;;;;;17.61;96.32;101191.50;5031572;28;20355;-77
2022/09/21 10:54:41;;;;;;;2.40;1.98;;;;;;;17.48;94.70;101197.00;5014965;28;20504;-77
2022/09/21 10:57:09;;;;;;;3.53;1.80;;;;;;;17.43;94.08;101191.94;5031553;28;20053;-77
2022/09/21 10:59:37;;;;;;;3.58;2.67;;;;;;;17.39;99.13;101188.50;5014656;28;20030;-77
2022/09/21 11:02:22;;;;;;;5.18;2.20;;;;;;;17.49;95.22;101177.56;5014743;28;20033;-76
2022/09/21 11:04:51;;;;;;;3.90;2.40;;;;;;;17.75;96.21;101183.91;5032660;28;20033;-76
2022/09/21 11:07:33;;;;;;;4.45;2.65;;;;;;;17.78;95.20;101191.56;5014796;28;20057;-76
2022/09/21 11:10:22;;;;;;;6.95;2.30;;;;;;;17.75;94.01;101190.50;5035194;28;20496;-75
2022/09/21 11:13:13;;;;;;;7.25;2.60;;;;;;;17.54;91.27;101194.09;5034908;28;20017;-76
2022/09/21 11:15:41;;;;;;;3.00;1.95;;;;;;;17.47;92.95;101186.72;5034809;28;20510;-77
2022/09/21 11:18:44;;;;;;;2.17;1.52;;;;;;;17.21;89.27;101198.41;5034698;28;20072;-77
2022/09/21 11:21:22;;;;;;;4.50;2.00;;;;;;;17.02;89.91;101177.03;5034541;28;20073;-77
2022/09/21 11:24:06;;;;;;;4.95;2.15;;;;;;;16.81;92.04;101175.59;5036006;28;20034;-77
2022/09/21 11:26:31;;;;;;;4.22;2.53;;;;;;;16.36;92.90;101175.25;5034291;28;20029;-77
2022/09/21 11:28:57;;;;;;;2.33;1.50;;;;;;;16.35;97.54;101175.78;5035836;28;20029;-76
2022/09/21 11:31:29;;;;;;;2.47;1.67;;;;;;;16.40;97.86;101175.03;5035865;28;20021;-76
2022/09/21 11:34:04;;;;;;;1.77;1.52;;;;;;;16.44;96.84;101179.28;5035878;28;20033;-77
2022/09/21 11:36:37;;;;;;;2.67;1.60;;;;;;;16.49;97.47;101169.88;5018148;28;20017;-78
2022/09/21 11:39:08;;;;;;;2.95;2.00;;;;;;;16.47;98.41;101171.66;5034402;28;20025;-78